sensor_id;sensor_type;location;lat;lon;timestamp;P1;durP1;ratioP1;P2;durP2;ratioP2
11279;SDS011;5696;50.928;6.960;2022-07-24T05:34:16;5.65;;;5.22;;
11279;SDS011;5696;50.928;6.960;2022-07-24T05:36:42;6.22;;;5.72;;
11279;SDS011;5696;50.928;6.960;2022-07-24T05:39:08;6.22;;;5.63;;
11279;SDS011;5696;50.928;6.960;2022-07-24T05:41:34;5.78;;;5.32;;
11279;SDS011;5696;50.928;6.960;2022-07-24T05:44:00;5.68;;;5.15;;
11279;SDS011;5696;50.928;6.960;2022-07-24T05:46:26;6.20;;;5.10;;
11279;SDS011;5696;50.928;6.960;2022-07-24T05:48:52;6.03;;;5.50;;
11279;SDS011;5696;50.928;6.960;2022-07-24T05:51:17;6.30;;;5.70;;
11279;SDS011;5696;50.928;6.960;2022-07-24T05:53:43;5.95;;;5.47;;
11279;SDS011;5696;50.928;6.960;2022-07-24T05:56:09;5.45;;;4.97;;
11279;SDS011;5696;50.928;6.960;2022-07-24T05:58:35;5.68;;;5.25;;
11279;SDS011;5696;50.928;6.960;2022-07-24T06:01:00;6.38;;;5.97;;
11279;SDS011;5696;50.928;6.960;2022-07-24T06:03:26;6.10;;;5.60;;
11279;SDS011;5696;50.928;6.960;2022-07-24T06:05:52;6.63;;;6.03;;
11279;SDS011;5696;50.928;6.960;2022-07-24T06:08:17;5.50;;;5.10;;
11279;SDS011;5696;50.928;6.960;2022-07-24T06:10:43;6.43;;;5.82;;
11279;SDS011;5696;50.928;6.960;2022-07-24T06:13:09;6.00;;;5.15;;
11279;SDS011;5696;50.928;6.960;2022-07-24T06:15:35;5.85;;;5.35;;
11279;SDS011;5696;50.928;6.960;2022-07-24T06:18:01;5.30;;;5.00;;
11279;SDS011;5696;50.928;6.960;2022-07-24T06:20:27;5.40;;;5.00;;
11279;SDS011;5696;50.928;6.960;2022-07-24T06:22:53;5.43;;;5.03;;
11279;SDS011;5696;50.928;6.960;2022-07-24T06:25:18;5.55;;;5.15;;
11279;SDS011;5696;50.928;6.960;2022-07-24T06:27:45;5.80;;;5.20;;
11279;SDS011;5696;50.928;6.960;2022-07-24T06:30:30;5.15;;;4.72;;
11279;SDS011;5696;50.928;6.960;2022-07-24T06:32:58;5.30;;;4.88;;
11279;SDS011;5696;50.928;6.960;2022-07-24T06:35:24;5.15;;;4.57;;
11279;SDS011;5696;50.928;6.960;2022-07-24T06:37:52;4.97;;;4.50;;
11279;SDS011;5696;50.928;6.960;2022-07-24T06:40:18;4.93;;;4.53;;
11279;SDS011;5696;50.928;6.960;2022-07-24T06:42:45;5.63;;;4.80;;
11279;SDS011;5696;50.928;6.960;2022-07-24T06:45:11;4.65;;;4.32;;
11279;SDS011;5696;50.928;6.960;2022-07-24T06:47:37;5.30;;;4.30;;
11279;SDS011;5696;50.928;6.960;2022-07-24T06:50:04;5.03;;;4.32;;
11279;SDS011;5696;50.928;6.960;2022-07-24T06:52:30;5.80;;;4.68;;
11279;SDS011;5696;50.928;6.960;2022-07-24T06:54:55;4.88;;;4.47;;
11279;SDS011;5696;50.928;6.960;2022-07-24T06:57:22;4.97;;;4.43;;
11279;SDS011;5696;50.928;6.960;2022-07-24T06:59:48;4.90;;;4.50;;
11279;SDS011;5696;50.928;6.960;2022-07-24T07:02:14;4.88;;;4.47;;
11279;SDS011;5696;50.928;6.960;2022-07-24T07:04:40;5.25;;;4.78;;
11279;SDS011;5696;50.928;6.960;2022-07-24T07:07:06;4.90;;;4.50;;
11279;SDS011;5696;50.928;6.960;2022-07-24T07:09:31;4.47;;;4.18;;
11279;SDS011;5696;50.928;6.960;2022-07-24T07:11:57;4.88;;;4.47;;
11279;SDS011;5696;50.928;6.960;2022-07-24T07:14:22;4.28;;;3.97;;
11279;SDS011;5696;50.928;6.960;2022-07-24T07:16:48;5.20;;;4.82;;
11279;SDS011;5696;50.928;6.960;2022-07-24T07:19:14;4.22;;;3.92;;
11279;SDS011;5696;50.928;6.960;2022-07-24T07:21:39;4.38;;;4.07;;
11279;SDS011;5696;50.928;6.960;2022-07-24T07:24:05;6.22;;;4.22;;
11279;SDS011;5696;50.928;6.960;2022-07-24T07:26:31;4.70;;;4.30;;
11279;SDS011;5696;50.928;6.960;2022-07-24T07:28:57;4.70;;;4.30;;
11279;SDS011;5696;50.928;6.960;2022-07-24T07:31:23;5.00;;;4.60;;
11279;SDS011;5696;50.928;6.960;2022-07-24T07:33:51;4.90;;;4.40;;
11279;SDS011;5696;50.928;6.960;2022-07-24T07:36:17;4.70;;;4.30;;
11279;SDS011;5696;50.928;6.960;2022-07-24T07:38:42;5.47;;;4.85;;
11279;SDS011;5696;50.928;6.960;2022-07-24T07:41:08;5.97;;;5.55;;
11279;SDS011;5696;50.928;6.960;2022-07-24T07:43:33;5.80;;;5.32;;
11279;SDS011;5696;50.928;6.960;2022-07-24T07:45:59;7.15;;;6.53;;
11279;SDS011;5696;50.928;6.960;2022-07-24T07:48:25;6.32;;;5.75;;
11279;SDS011;5696;50.928;6.960;2022-07-24T07:50:52;6.78;;;6.05;;
11279;SDS011;5696;50.928;6.960;2022-07-24T07:53:17;6.22;;;5.72;;
11279;SDS011;5696;50.928;6.960;2022-07-24T07:55:43;7.70;;;6.38;;
11279;SDS011;5696;50.928;6.960;2022-07-24T07:58:10;6.95;;;6.07;;
11279;SDS011;5696;50.928;6.960;2022-07-24T08:00:36;6.53;;;6.03;;
11279;SDS011;5696;50.928;6.960;2022-07-24T08:03:02;8.75;;;6.50;;
11279;SDS011;5696;50.928;6.960;2022-07-24T08:05:28;7.03;;;6.43;;
11279;SDS011;5696;50.928;6.960;2022-07-24T08:07:54;6.72;;;6.18;;
11279;SDS011;5696;50.928;6.960;2022-07-24T08:10:20;6.60;;;5.97;;
11279;SDS011;5696;50.928;6.960;2022-07-24T08:12:46;6.82;;;6.32;;
11279;SDS011;5696;50.928;6.960;2022-07-24T08:15:11;6.60;;;6.00;;
11279;SDS011;5696;50.928;6.960;2022-07-24T08:17:37;6.72;;;6.20;;
11279;SDS011;5696;50.928;6.960;2022-07-24T08:20:03;7.00;;;6.40;;
11279;SDS011;5696;50.928;6.960;2022-07-24T08:22:29;6.65;;;6.05;;
11279;SDS011;5696;50.928;6.960;2022-07-24T08:24:54;6.78;;;6.18;;
11279;SDS011;5696;50.928;6.960;2022-07-24T08:27:20;6.22;;;5.72;;
11279;SDS011;5696;50.928;6.960;2022-07-24T08:29:45;7.22;;;6.68;;
11279;SDS011;5696;50.928;6.960;2022-07-24T08:32:11;6.47;;;5.88;;
11279;SDS011;5696;50.928;6.960;2022-07-24T08:34:37;6.82;;;6.32;;
11279;SDS011;5696;50.928;6.960;2022-07-24T08:37:03;7.18;;;6.32;;
11279;SDS011;5696;50.928;6.960;2022-07-24T08:39:28;7.70;;;6.00;;
11279;SDS011;5696;50.928;6.960;2022-07-24T08:41:54;7.10;;;6.40;;
11279;SDS011;5696;50.928;6.960;2022-07-24T08:44:20;7.20;;;6.03;;
11279;SDS011;5696;50.928;6.960;2022-07-24T08:46:45;7.30;;;6.35;;
11279;SDS011;5696;50.928;6.960;2022-07-24T08:49:12;6.25;;;5.75;;
11279;SDS011;5696;50.928;6.960;2022-07-24T08:51:42;6.80;;;6.00;;
11279;SDS011;5696;50.928;6.960;2022-07-24T08:54:09;6.47;;;5.97;;
11279;SDS011;5696;50.928;6.960;2022-07-24T08:56:39;6.43;;;5.93;;
11279;SDS011;5696;50.928;6.960;2022-07-24T08:59:14;6.60;;;5.78;;
11279;SDS011;5696;50.928;6.960;2022-07-24T09:01:44;6.45;;;5.85;;
11279;SDS011;5696;50.928;6.960;2022-07-24T09:09:37;6.93;;;6.30;;
11279;SDS011;5696;50.928;6.960;2022-07-24T09:12:05;6.72;;;6.22;;
11279;SDS011;5696;50.928;6.960;2022-07-24T09:14:37;6.75;;;6.15;;
11279;SDS011;5696;50.928;6.960;2022-07-24T09:27:35;6.53;;;5.93;;
11279;SDS011;5696;50.928;6.960;2022-07-24T09:30:02;7.10;;;6.40;;
11279;SDS011;5696;50.928;6.960;2022-07-24T09:32:29;6.80;;;6.20;;
11279;SDS011;5696;50.928;6.960;2022-07-24T09:34:55;6.63;;;5.97;;
11279;SDS011;5696;50.928;6.960;2022-07-24T09:37:21;6.32;;;5.70;;
11279;SDS011;5696;50.928;6.960;2022-07-24T09:39:47;6.15;;;5.63;;
11279;SDS011;5696;50.928;6.960;2022-07-24T09:42:13;6.70;;;6.18;;
11279;SDS011;5696;50.928;6.960;2022-07-24T09:44:39;6.72;;;6.10;;
11279;SDS011;5696;50.928;6.960;2022-07-24T09:47:07;6.50;;;5.90;;
11279;SDS011;5696;50.928;6.960;2022-07-24T09:49:34;6.28;;;5.78;;
11279;SDS011;5696;50.928;6.960;2022-07-24T09:52:17;7.03;;;5.70;;
11279;SDS011;5696;50.928;6.960;2022-07-24T09:54:47;6.03;;;5.47;;
11279;SDS011;5696;50.928;6.960;2022-07-24T09:57:25;6.20;;;5.47;;
11279;SDS011;5696;50.928;6.960;2022-07-24T10:02:29;6.43;;;5.82;;
11279;SDS011;5696;50.928;6.960;2022-07-24T10:04:58;6.78;;;6.15;;
11279;SDS011;5696;50.928;6.960;2022-07-24T10:07:26;6.82;;;6.22;;
11279;SDS011;5696;50.928;6.960;2022-07-24T10:09:53;6.40;;;5.45;;
11279;SDS011;5696;50.928;6.960;2022-07-24T10:12:21;5.78;;;5.32;;
11279;SDS011;5696;50.928;6.960;2022-07-24T10:14:50;6.40;;;5.80;;
11279;SDS011;5696;50.928;6.960;2022-07-24T10:17:18;7.00;;;6.40;;
11279;SDS011;5696;50.928;6.960;2022-07-24T10:19:48;6.68;;;6.07;;
11279;SDS011;5696;50.928;6.960;2022-07-24T10:22:16;6.45;;;5.82;;
11279;SDS011;5696;50.928;6.960;2022-07-24T10:25:04;9.10;;;6.00;;
11279;SDS011;5696;50.928;6.960;2022-07-24T10:27:32;6.10;;;5.60;;
11279;SDS011;5696;50.928;6.960;2022-07-24T10:30:05;6.22;;;5.63;;
11279;SDS011;5696;50.928;6.960;2022-07-24T10:32:33;5.95;;;5.45;;
11279;SDS011;5696;50.928;6.960;2022-07-24T10:45:34;7.55;;;6.13;;
11279;SDS011;5696;50.928;6.960;2022-07-24T10:51:00;7.07;;;6.47;;
11279;SDS011;5696;50.928;6.960;2022-07-24T11:06:45;6.78;;;6.28;;
11279;SDS011;5696;50.928;6.960;2022-07-24T11:09:12;6.32;;;5.80;;
11279;SDS011;5696;50.928;6.960;2022-07-24T11:11:40;6.03;;;5.53;;
11279;SDS011;5696;50.928;6.960;2022-07-24T11:14:07;6.50;;;5.85;;
11279;SDS011;5696;50.928;6.960;2022-07-24T11:16:35;5.85;;;5.40;;
11279;SDS011;5696;50.928;6.960;2022-07-24T11:21:30;5.93;;;5.47;;
11279;SDS011;5696;50.928;6.960;2022-07-24T11:26:48;6.28;;;5.78;;
11279;SDS011;5696;50.928;6.960;2022-07-24T11:29:19;6.05;;;5.50;;
11279;SDS011;5696;50.928;6.960;2022-07-24T11:31:48;6.10;;;5.70;;
11279;SDS011;5696;50.928;6.960;2022-07-24T11:34:16;6.45;;;5.60;;
11279;SDS011;5696;50.928;6.960;2022-07-24T11:36:45;6.75;;;5.65;;
11279;SDS011;5696;50.928;6.960;2022-07-24T11:39:13;6.45;;;5.30;;
11279;SDS011;5696;50.928;6.960;2022-07-24T11:44:13;5.82;;;5.32;;
11279;SDS011;5696;50.928;6.960;2022-07-24T11:46:40;6.00;;;5.50;;
11279;SDS011;5696;50.928;6.960;2022-07-24T11:49:07;6.95;;;6.20;;
11279;SDS011;5696;50.928;6.960;2022-07-24T11:51:48;5.70;;;5.30;;
11279;SDS011;5696;50.928;6.960;2022-07-24T11:54:19;5.68;;;5.07;;
11279;SDS011;5696;50.928;6.960;2022-07-24T11:56:50;6.05;;;5.45;;
11279;SDS011;5696;50.928;6.960;2022-07-24T11:59:24;5.60;;;5.20;;
11279;SDS011;5696;50.928;6.960;2022-07-24T12:02:05;6.18;;;5.68;;
11279;SDS011;5696;50.928;6.960;2022-07-24T12:04:32;5.47;;;4.93;;
11279;SDS011;5696;50.928;6.960;2022-07-24T12:06:59;5.43;;;5.03;;
11279;SDS011;5696;50.928;6.960;2022-07-24T12:09:24;6.07;;;5.47;;
11279;SDS011;5696;50.928;6.960;2022-07-24T12:11:50;6.15;;;5.65;;
11279;SDS011;5696;50.928;6.960;2022-07-24T12:14:17;5.40;;;5.00;;
11279;SDS011;5696;50.928;6.960;2022-07-24T12:16:50;5.32;;;4.90;;
11279;SDS011;5696;50.928;6.960;2022-07-24T12:19:20;5.80;;;5.20;;
11279;SDS011;5696;50.928;6.960;2022-07-24T12:21:48;5.72;;;5.32;;
11279;SDS011;5696;50.928;6.960;2022-07-24T12:24:17;5.93;;;5.32;;
11279;SDS011;5696;50.928;6.960;2022-07-24T12:29:19;5.82;;;5.43;;
11279;SDS011;5696;50.928;6.960;2022-07-24T12:31:46;5.78;;;5.28;;
11279;SDS011;5696;50.928;6.960;2022-07-24T12:34:12;5.88;;;5.38;;
11279;SDS011;5696;50.928;6.960;2022-07-24T12:36:38;5.63;;;5.22;;
11279;SDS011;5696;50.928;6.960;2022-07-24T12:39:05;7.53;;;5.35;;
11279;SDS011;5696;50.928;6.960;2022-07-24T12:41:39;6.25;;;5.28;;
11279;SDS011;5696;50.928;6.960;2022-07-24T12:44:09;6.07;;;5.45;;
11279;SDS011;5696;50.928;6.960;2022-07-24T12:46:39;5.47;;;5.18;;
11279;SDS011;5696;50.928;6.960;2022-07-24T12:54:28;6.13;;;5.60;;
11279;SDS011;5696;50.928;6.960;2022-07-24T12:57:00;6.22;;;5.22;;
11279;SDS011;5696;50.928;6.960;2022-07-24T12:59:35;5.63;;;5.20;;
11279;SDS011;5696;50.928;6.960;2022-07-24T13:02:03;5.85;;;5.35;;
11279;SDS011;5696;50.928;6.960;2022-07-24T13:04:40;5.75;;;5.32;;
11279;SDS011;5696;50.928;6.960;2022-07-24T13:07:07;5.75;;;5.35;;
11279;SDS011;5696;50.928;6.960;2022-07-24T13:09:34;5.72;;;5.25;;
11279;SDS011;5696;50.928;6.960;2022-07-24T13:12:01;6.20;;;5.60;;
11279;SDS011;5696;50.928;6.960;2022-07-24T13:14:27;6.13;;;5.43;;
11279;SDS011;5696;50.928;6.960;2022-07-24T13:16:55;5.38;;;4.97;;
11279;SDS011;5696;50.928;6.960;2022-07-24T13:19:26;4.93;;;4.53;;
11279;SDS011;5696;50.928;6.960;2022-07-24T13:21:51;6.25;;;5.22;;
11279;SDS011;5696;50.928;6.960;2022-07-24T13:24:17;5.18;;;4.78;;
11279;SDS011;5696;50.928;6.960;2022-07-24T13:26:43;5.50;;;5.03;;
11279;SDS011;5696;50.928;6.960;2022-07-24T13:29:10;4.88;;;4.47;;
11279;SDS011;5696;50.928;6.960;2022-07-24T13:31:36;5.55;;;5.05;;
11279;SDS011;5696;50.928;6.960;2022-07-24T13:34:03;5.53;;;5.10;;
11279;SDS011;5696;50.928;6.960;2022-07-24T13:36:34;5.82;;;4.70;;
11279;SDS011;5696;50.928;6.960;2022-07-24T13:39:00;7.75;;;4.97;;
11279;SDS011;5696;50.928;6.960;2022-07-24T13:41:26;5.07;;;4.60;;
11279;SDS011;5696;50.928;6.960;2022-07-24T13:43:52;5.25;;;4.70;;
11279;SDS011;5696;50.928;6.960;2022-07-24T13:46:18;4.93;;;4.53;;
11279;SDS011;5696;50.928;6.960;2022-07-24T13:48:44;4.63;;;4.32;;
11279;SDS011;5696;50.928;6.960;2022-07-24T13:51:10;4.55;;;4.25;;
11279;SDS011;5696;50.928;6.960;2022-07-24T13:53:35;5.20;;;4.70;;
11279;SDS011;5696;50.928;6.960;2022-07-24T13:56:03;4.47;;;4.18;;
11279;SDS011;5696;50.928;6.960;2022-07-24T13:58:31;4.90;;;4.60;;
11279;SDS011;5696;50.928;6.960;2022-07-24T14:00:56;5.28;;;4.75;;
11279;SDS011;5696;50.928;6.960;2022-07-24T14:03:22;4.72;;;4.38;;
11279;SDS011;5696;50.928;6.960;2022-07-24T14:05:48;5.28;;;4.78;;
11279;SDS011;5696;50.928;6.960;2022-07-24T14:08:14;5.13;;;4.72;;
11279;SDS011;5696;50.928;6.960;2022-07-24T14:10:39;6.75;;;4.88;;
11279;SDS011;5696;50.928;6.960;2022-07-24T14:13:05;5.03;;;4.63;;
11279;SDS011;5696;50.928;6.960;2022-07-24T14:15:30;4.63;;;4.32;;
11279;SDS011;5696;50.928;6.960;2022-07-24T14:17:56;5.32;;;4.88;;
11279;SDS011;5696;50.928;6.960;2022-07-24T14:20:22;5.85;;;4.60;;
11279;SDS011;5696;50.928;6.960;2022-07-24T14:22:48;5.50;;;5.03;;
11279;SDS011;5696;50.928;6.960;2022-07-24T14:25:13;4.93;;;4.53;;
11279;SDS011;5696;50.928;6.960;2022-07-24T14:27:40;5.25;;;4.65;;
11279;SDS011;5696;50.928;6.960;2022-07-24T14:30:06;5.28;;;4.78;;
11279;SDS011;5696;50.928;6.960;2022-07-24T14:32:32;6.65;;;5.07;;
11279;SDS011;5696;50.928;6.960;2022-07-24T14:34:58;4.93;;;4.53;;
11279;SDS011;5696;50.928;6.960;2022-07-24T14:37:24;4.85;;;4.53;;
11279;SDS011;5696;50.928;6.960;2022-07-24T14:39:50;4.90;;;4.55;;
11279;SDS011;5696;50.928;6.960;2022-07-24T14:42:16;4.40;;;4.10;;
11279;SDS011;5696;50.928;6.960;2022-07-24T14:44:41;4.35;;;4.00;;
11279;SDS011;5696;50.928;6.960;2022-07-24T14:47:07;4.90;;;4.50;;
11279;SDS011;5696;50.928;6.960;2022-07-24T14:49:32;4.95;;;4.53;;
11279;SDS011;5696;50.928;6.960;2022-07-24T14:51:58;4.82;;;4.43;;
11279;SDS011;5696;50.928;6.960;2022-07-24T14:54:24;5.55;;;4.43;;
11279;SDS011;5696;50.928;6.960;2022-07-24T14:56:50;5.13;;;4.72;;
11279;SDS011;5696;50.928;6.960;2022-07-24T14:59:17;5.22;;;4.72;;
11279;SDS011;5696;50.928;6.960;2022-07-24T15:01:42;4.90;;;4.35;;
11279;SDS011;5696;50.928;6.960;2022-07-24T15:04:08;4.97;;;4.57;;
11279;SDS011;5696;50.928;6.960;2022-07-24T15:06:34;5.28;;;4.88;;
11279;SDS011;5696;50.928;6.960;2022-07-24T15:09:01;4.57;;;4.22;;
11279;SDS011;5696;50.928;6.960;2022-07-24T15:11:28;4.65;;;4.32;;
11279;SDS011;5696;50.928;6.960;2022-07-24T15:13:54;4.97;;;4.57;;
11279;SDS011;5696;50.928;6.960;2022-07-24T15:16:20;4.97;;;4.68;;
11279;SDS011;5696;50.928;6.960;2022-07-24T15:18:45;4.75;;;4.38;;
11279;SDS011;5696;50.928;6.960;2022-07-24T15:21:12;4.80;;;4.40;;
11279;SDS011;5696;50.928;6.960;2022-07-24T15:23:37;5.50;;;4.85;;
11279;SDS011;5696;50.928;6.960;2022-07-24T15:26:03;6.05;;;4.60;;
11279;SDS011;5696;50.928;6.960;2022-07-24T15:28:29;7.07;;;5.75;;
11279;SDS011;5696;50.928;6.960;2022-07-24T15:30:56;5.20;;;4.80;;
11279;SDS011;5696;50.928;6.960;2022-07-24T15:33:22;6.03;;;4.65;;
11279;SDS011;5696;50.928;6.960;2022-07-24T15:35:48;5.18;;;4.68;;
11279;SDS011;5696;50.928;6.960;2022-07-24T15:38:13;5.03;;;4.57;;
11279;SDS011;5696;50.928;6.960;2022-07-24T15:40:42;4.90;;;4.50;;
11279;SDS011;5696;50.928;6.960;2022-07-24T15:43:08;5.68;;;5.28;;
11279;SDS011;5696;50.928;6.960;2022-07-24T15:45:34;5.07;;;4.57;;
11279;SDS011;5696;50.928;6.960;2022-07-24T15:48:00;6.05;;;5.22;;
11279;SDS011;5696;50.928;6.960;2022-07-24T15:50:26;4.57;;;4.28;;
11279;SDS011;5696;50.928;6.960;2022-07-24T15:52:52;5.00;;;4.60;;
11279;SDS011;5696;50.928;6.960;2022-07-24T15:55:18;5.47;;;4.93;;
11279;SDS011;5696;50.928;6.960;2022-07-24T15:57:44;5.00;;;4.50;;
11279;SDS011;5696;50.928;6.960;2022-07-24T16:00:10;5.25;;;4.75;;
11279;SDS011;5696;50.928;6.960;2022-07-24T16:02:35;5.00;;;4.60;;
11279;SDS011;5696;50.928;6.960;2022-07-24T16:05:04;5.20;;;4.70;;
11279;SDS011;5696;50.928;6.960;2022-07-24T16:07:30;4.93;;;4.53;;
11279;SDS011;5696;50.928;6.960;2022-07-24T16:09:56;4.97;;;4.57;;
11279;SDS011;5696;50.928;6.960;2022-07-24T16:12:22;4.57;;;4.28;;
11279;SDS011;5696;50.928;6.960;2022-07-24T16:14:48;4.47;;;4.18;;
11279;SDS011;5696;50.928;6.960;2022-07-24T16:17:14;4.80;;;4.35;;
11279;SDS011;5696;50.928;6.960;2022-07-24T16:19:40;5.38;;;4.95;;
11279;SDS011;5696;50.928;6.960;2022-07-24T16:22:06;5.00;;;4.70;;
11279;SDS011;5696;50.928;6.960;2022-07-24T16:24:32;6.30;;;4.72;;
11279;SDS011;5696;50.928;6.960;2022-07-24T16:26:58;4.65;;;4.35;;
11279;SDS011;5696;50.928;6.960;2022-07-24T16:29:24;5.70;;;5.13;;
11279;SDS011;5696;50.928;6.960;2022-07-24T16:31:49;4.97;;;4.28;;
11279;SDS011;5696;50.928;6.960;2022-07-24T16:34:15;5.25;;;4.75;;
11279;SDS011;5696;50.928;6.960;2022-07-24T16:36:41;5.05;;;4.65;;
11279;SDS011;5696;50.928;6.960;2022-07-24T16:39:13;4.88;;;4.47;;
11279;SDS011;5696;50.928;6.960;2022-07-24T16:41:38;5.10;;;4.70;;
11279;SDS011;5696;50.928;6.960;2022-07-24T16:44:04;4.43;;;4.03;;
11279;SDS011;5696;50.928;6.960;2022-07-24T16:46:30;5.28;;;4.80;;
11279;SDS011;5696;50.928;6.960;2022-07-24T16:48:55;5.45;;;5.05;;
11279;SDS011;5696;50.928;6.960;2022-07-24T16:51:21;4.60;;;4.30;;
11279;SDS011;5696;50.928;6.960;2022-07-24T16:53:47;5.10;;;4.70;;
11279;SDS011;5696;50.928;6.960;2022-07-24T16:56:12;4.90;;;4.60;;
11279;SDS011;5696;50.928;6.960;2022-07-24T16:58:38;4.93;;;4.53;;
11279;SDS011;5696;50.928;6.960;2022-07-24T17:01:05;4.70;;;4.30;;
11279;SDS011;5696;50.928;6.960;2022-07-24T17:03:31;5.07;;;4.68;;
11279;SDS011;5696;50.928;6.960;2022-07-24T17:06:00;4.90;;;4.50;;
11279;SDS011;5696;50.928;6.960;2022-07-24T17:08:27;4.60;;;4.30;;
11279;SDS011;5696;50.928;6.960;2022-07-24T17:10:55;4.30;;;4.00;;
11279;SDS011;5696;50.928;6.960;2022-07-24T17:13:24;4.65;;;4.20;;
11279;SDS011;5696;50.928;6.960;2022-07-24T17:15:49;4.50;;;4.20;;
11279;SDS011;5696;50.928;6.960;2022-07-24T17:18:15;4.95;;;4.25;;
11279;SDS011;5696;50.928;6.960;2022-07-24T17:20:41;4.65;;;4.35;;
11279;SDS011;5696;50.928;6.960;2022-07-24T17:23:09;5.32;;;4.70;;
11279;SDS011;5696;50.928;6.960;2022-07-24T17:25:36;4.80;;;4.40;;
11279;SDS011;5696;50.928;6.960;2022-07-24T17:28:04;5.05;;;4.63;;
11279;SDS011;5696;50.928;6.960;2022-07-24T17:30:31;5.32;;;4.90;;
11279;SDS011;5696;50.928;6.960;2022-07-24T17:32:59;5.20;;;4.80;;
11279;SDS011;5696;50.928;6.960;2022-07-24T17:35:25;6.45;;;5.85;;
11279;SDS011;5696;50.928;6.960;2022-07-24T17:37:51;5.07;;;4.60;;
11279;SDS011;5696;50.928;6.960;2022-07-24T17:40:17;4.60;;;4.20;;
11279;SDS011;5696;50.928;6.960;2022-07-24T17:42:43;4.32;;;4.03;;
11279;SDS011;5696;50.928;6.960;2022-07-24T17:45:09;4.75;;;4.30;;
11279;SDS011;5696;50.928;6.960;2022-07-24T17:47:35;5.03;;;4.50;;
11279;SDS011;5696;50.928;6.960;2022-07-24T17:50:02;5.05;;;4.65;;
11279;SDS011;5696;50.928;6.960;2022-07-24T17:52:29;5.97;;;5.57;;
11279;SDS011;5696;50.928;6.960;2022-07-24T17:54:56;4.85;;;4.45;;
11279;SDS011;5696;50.928;6.960;2022-07-24T17:57:22;5.53;;;4.97;;
11279;SDS011;5696;50.928;6.960;2022-07-24T17:59:47;4.72;;;4.32;;
11279;SDS011;5696;50.928;6.960;2022-07-24T18:02:13;4.80;;;4.30;;
11279;SDS011;5696;50.928;6.960;2022-07-24T18:04:39;4.72;;;4.32;;
11279;SDS011;5696;50.928;6.960;2022-07-24T18:07:04;5.00;;;4.60;;
11279;SDS011;5696;50.928;6.960;2022-07-24T18:09:30;5.00;;;4.57;;
11279;SDS011;5696;50.928;6.960;2022-07-24T18:11:58;5.20;;;4.80;;
11279;SDS011;5696;50.928;6.960;2022-07-24T18:14:24;6.90;;;4.60;;
11279;SDS011;5696;50.928;6.960;2022-07-24T18:16:50;5.13;;;4.63;;
11279;SDS011;5696;50.928;6.960;2022-07-24T18:19:16;5.38;;;4.30;;
11279;SDS011;5696;50.928;6.960;2022-07-24T18:21:42;5.10;;;4.57;;
11279;SDS011;5696;50.928;6.960;2022-07-24T18:24:07;5.63;;;5.13;;
11279;SDS011;5696;50.928;6.960;2022-07-24T18:26:33;5.32;;;4.82;;
11279;SDS011;5696;50.928;6.960;2022-07-24T18:28:59;4.75;;;4.45;;
11279;SDS011;5696;50.928;6.960;2022-07-24T18:31:25;4.90;;;4.43;;
11279;SDS011;5696;50.928;6.960;2022-07-24T18:33:50;5.32;;;4.88;;
11279;SDS011;5696;50.928;6.960;2022-07-24T18:36:16;5.30;;;4.90;;
11279;SDS011;5696;50.928;6.960;2022-07-24T18:38:42;5.53;;;4.90;;
11279;SDS011;5696;50.928;6.960;2022-07-24T18:41:08;5.18;;;4.78;;
11279;SDS011;5696;50.928;6.960;2022-07-24T18:43:33;5.72;;;5.22;;
11279;SDS011;5696;50.928;6.960;2022-07-24T18:45:59;5.53;;;5.03;;
11279;SDS011;5696;50.928;6.960;2022-07-24T18:48:26;6.25;;;5.28;;
11279;SDS011;5696;50.928;6.960;2022-07-24T18:50:52;5.90;;;5.40;;
11279;SDS011;5696;50.928;6.960;2022-07-24T18:53:18;5.30;;;4.88;;
11279;SDS011;5696;50.928;6.960;2022-07-24T18:55:43;5.55;;;5.05;;
11279;SDS011;5696;50.928;6.960;2022-07-24T18:58:09;6.13;;;5.20;;
11279;SDS011;5696;50.928;6.960;2022-07-24T19:00:35;5.60;;;5.20;;
11279;SDS011;5696;50.928;6.960;2022-07-24T19:03:00;5.70;;;5.22;;
11279;SDS011;5696;50.928;6.960;2022-07-24T19:05:26;5.75;;;5.25;;
11279;SDS011;5696;50.928;6.960;2022-07-24T19:07:52;6.10;;;5.50;;
11279;SDS011;5696;50.928;6.960;2022-07-24T19:10:17;5.82;;;5.25;;
11279;SDS011;5696;50.928;6.960;2022-07-24T19:12:43;6.15;;;5.55;;
11279;SDS011;5696;50.928;6.960;2022-07-24T19:15:09;6.32;;;5.82;;
11279;SDS011;5696;50.928;6.960;2022-07-24T19:17:35;6.40;;;5.90;;
11279;SDS011;5696;50.928;6.960;2022-07-24T19:20:01;6.22;;;5.72;;
11279;SDS011;5696;50.928;6.960;2022-07-24T19:22:27;6.07;;;5.57;;
11279;SDS011;5696;50.928;6.960;2022-07-24T19:24:53;6.40;;;5.80;;
11279;SDS011;5696;50.928;6.960;2022-07-24T19:27:19;6.28;;;5.78;;
11279;SDS011;5696;50.928;6.960;2022-07-24T19:29:44;8.43;;;6.28;;
11279;SDS011;5696;50.928;6.960;2022-07-24T19:32:10;6.82;;;6.20;;
11279;SDS011;5696;50.928;6.960;2022-07-24T19:34:36;6.43;;;5.93;;
11279;SDS011;5696;50.928;6.960;2022-07-24T19:37:02;6.75;;;6.20;;
11279;SDS011;5696;50.928;6.960;2022-07-24T19:39:28;6.28;;;5.68;;
11279;SDS011;5696;50.928;6.960;2022-07-24T19:41:54;7.30;;;5.90;;
11279;SDS011;5696;50.928;6.960;2022-07-24T19:44:20;6.68;;;5.88;;
11279;SDS011;5696;50.928;6.960;2022-07-24T19:46:49;8.40;;;7.70;;
11279;SDS011;5696;50.928;6.960;2022-07-24T19:49:14;8.38;;;7.50;;
11279;SDS011;5696;50.928;6.960;2022-07-24T19:51:40;7.13;;;6.43;;
11279;SDS011;5696;50.928;6.960;2022-07-24T19:54:06;7.35;;;6.68;;
11279;SDS011;5696;50.928;6.960;2022-07-24T19:56:32;6.90;;;6.30;;
11279;SDS011;5696;50.928;6.960;2022-07-24T19:58:59;7.35;;;6.22;;
11279;SDS011;5696;50.928;6.960;2022-07-24T20:01:24;6.75;;;6.20;;
11279;SDS011;5696;50.928;6.960;2022-07-24T20:03:50;6.65;;;6.05;;
11279;SDS011;5696;50.928;6.960;2022-07-24T20:06:17;6.45;;;5.95;;
11279;SDS011;5696;50.928;6.960;2022-07-24T20:08:43;6.82;;;6.30;;
11279;SDS011;5696;50.928;6.960;2022-07-24T20:11:09;6.63;;;6.07;;
11279;SDS011;5696;50.928;6.960;2022-07-24T20:13:35;7.65;;;7.05;;
11279;SDS011;5696;50.928;6.960;2022-07-24T20:16:00;7.40;;;6.80;;
11279;SDS011;5696;50.928;6.960;2022-07-24T20:18:26;7.10;;;6.38;;
11279;SDS011;5696;50.928;6.960;2022-07-24T20:20:52;9.73;;;7.43;;
11279;SDS011;5696;50.928;6.960;2022-07-24T20:23:17;8.70;;;7.90;;
11279;SDS011;5696;50.928;6.960;2022-07-24T20:25:43;9.35;;;8.52;;
11279;SDS011;5696;50.928;6.960;2022-07-24T20:28:10;9.25;;;8.52;;
11279;SDS011;5696;50.928;6.960;2022-07-24T20:30:36;8.38;;;7.68;;
11279;SDS011;5696;50.928;6.960;2022-07-24T20:33:02;9.40;;;8.23;;
11279;SDS011;5696;50.928;6.960;2022-07-24T20:35:27;7.60;;;6.97;;
11279;SDS011;5696;50.928;6.960;2022-07-24T20:37:53;8.10;;;7.38;;
11279;SDS011;5696;50.928;6.960;2022-07-24T20:40:19;7.63;;;6.97;;
11279;SDS011;5696;50.928;6.960;2022-07-24T20:42:45;7.03;;;6.28;;
11279;SDS011;5696;50.928;6.960;2022-07-24T20:45:11;6.10;;;5.68;;
11279;SDS011;5696;50.928;6.960;2022-07-24T20:47:37;7.45;;;6.07;;
11279;SDS011;5696;50.928;6.960;2022-07-24T20:50:03;7.85;;;7.18;;
11279;SDS011;5696;50.928;6.960;2022-07-24T20:52:29;7.28;;;6.63;;
11279;SDS011;5696;50.928;6.960;2022-07-24T20:54:56;6.85;;;6.25;;
11279;SDS011;5696;50.928;6.960;2022-07-24T20:57:22;7.88;;;7.13;;
11279;SDS011;5696;50.928;6.960;2022-07-24T20:59:47;7.68;;;6.90;;
11279;SDS011;5696;50.928;6.960;2022-07-24T21:02:13;6.53;;;5.93;;
11279;SDS011;5696;50.928;6.960;2022-07-24T21:04:39;9.98;;;6.85;;
11279;SDS011;5696;50.928;6.960;2022-07-24T21:07:08;6.35;;;5.85;;
11279;SDS011;5696;50.928;6.960;2022-07-24T21:09:35;7.55;;;6.78;;
11279;SDS011;5696;50.928;6.960;2022-07-24T21:12:02;6.95;;;6.35;;
11279;SDS011;5696;50.928;6.960;2022-07-24T21:14:28;6.95;;;6.25;;
11279;SDS011;5696;50.928;6.960;2022-07-24T21:16:54;6.43;;;5.93;;
11279;SDS011;5696;50.928;6.960;2022-07-24T21:19:19;6.38;;;5.93;;
11279;SDS011;5696;50.928;6.960;2022-07-24T21:21:45;6.13;;;5.45;;
11279;SDS011;5696;50.928;6.960;2022-07-24T21:24:11;6.05;;;5.63;;
11279;SDS011;5696;50.928;6.960;2022-07-24T21:26:37;7.05;;;6.18;;
11279;SDS011;5696;50.928;6.960;2022-07-24T21:29:03;7.00;;;6.30;;
11279;SDS011;5696;50.928;6.960;2022-07-24T21:31:29;6.43;;;5.93;;